createdAt,value
2022-09-17T00:00:56.020Z,97717.84
2022-09-17T00:02:58.971Z,97725.34
2022-09-17T00:05:03.374Z,97721.94
2022-09-17T00:07:06.751Z,97727.16
2022-09-17T00:09:10.300Z,97725.34
2022-09-17T00:11:14.872Z,97728.66
2022-09-17T00:13:17.823Z,97735.56
2022-09-17T00:15:20.769Z,97733.66
2022-09-17T00:17:23.774Z,97736.16
2022-09-17T00:19:26.737Z,97741.75
2022-09-17T00:21:31.719Z,97734.50
2022-09-17T00:23:34.722Z,97736.19
2022-09-17T00:25:39.245Z,97740.72
2022-09-17T00:27:42.240Z,97733.69
2022-09-17T00:29:45.662Z,97738.00
2022-09-17T00:31:48.807Z,97738.69
2022-09-17T00:33:52.519Z,97744.59
2022-09-17T00:35:59.414Z,97742.50
2022-09-17T00:38:03.748Z,97746.78
2022-09-17T00:40:07.887Z,97740.47
2022-09-17T00:42:11.157Z,97750.94
2022-09-17T00:44:43.014Z,97747.94
2022-09-17T00:46:46.369Z,97748.66
2022-09-17T00:48:49.492Z,97746.03
2022-09-17T00:50:53.698Z,97751.25
2022-09-17T00:53:00.603Z,97751.97
2022-09-17T00:55:10.627Z,97752.56
2022-09-17T00:57:13.644Z,97748.97
2022-09-17T00:59:16.744Z,97746.34
2022-09-17T01:01:20.106Z,97753.00
2022-09-17T01:03:23.160Z,97753.59
2022-09-17T01:05:32.098Z,97757.03
2022-09-17T01:08:00.133Z,97757.88
2022-09-17T01:10:21.153Z,97755.25
2022-09-17T01:12:41.262Z,97750.84
2022-09-17T01:14:52.059Z,97749.03
2022-09-17T01:17:00.528Z,97745.63
2022-09-17T01:19:14.149Z,97742.88
2022-09-17T01:21:46.962Z,97747.41
2022-09-17T01:24:07.602Z,97748.34
2022-09-17T01:26:30.528Z,97747.53
2022-09-17T01:28:43.478Z,97750.28
2022-09-17T01:31:06.292Z,97748.47
2022-09-17T01:33:13.470Z,97737.44
2022-09-17T01:35:21.096Z,97735.06
2022-09-17T01:37:30.719Z,97738.75
2022-09-17T01:39:43.296Z,97738.88
2022-09-17T01:41:52.931Z,97737.25
2022-09-17T01:44:00.114Z,97742.59
2022-09-17T01:46:11.279Z,97747.09
2022-09-17T01:48:18.064Z,97741.19
2022-09-17T01:50:25.547Z,97755.31
2022-09-17T01:52:28.958Z,97757.22
2022-09-17T01:54:38.074Z,97761.03
2022-09-17T01:56:46.052Z,97759.41
2022-09-17T01:58:53.589Z,97753.31
2022-09-17T02:00:59.914Z,97753.56
2022-09-17T02:03:08.222Z,97753.94
2022-09-17T02:05:16.229Z,97748.25
2022-09-17T02:07:21.218Z,97744.47
2022-09-17T02:09:26.678Z,97756.81
2022-09-17T02:11:29.805Z,97760.41
2022-09-17T02:13:34.539Z,97761.91
2022-09-17T02:15:40.797Z,97750.53
2022-09-17T02:17:47.627Z,97751.34
2022-09-17T02:19:53.727Z,97739.13
2022-09-17T02:22:02.094Z,97752.91
2022-09-17T02:24:09.836Z,97755.38
2022-09-17T02:26:15.414Z,97756.09
2022-09-17T02:28:23.425Z,97758.47
2022-09-17T02:30:26.525Z,97761.88
2022-09-17T02:32:29.518Z,97767.72
2022-09-17T02:34:32.909Z,97773.78
2022-09-17T02:36:37.297Z,97763.44
2022-09-17T02:38:42.867Z,97762.63
2022-09-17T02:40:48.765Z,97763.81
2022-09-17T02:43:01.435Z,97760.63
2022-09-17T02:45:08.236Z,97766.78
2022-09-17T02:47:38.805Z,97764.88
2022-09-17T02:49:54.442Z,97755.16
2022-09-17T02:52:05.523Z,97752.41
2022-09-17T02:54:15.735Z,97756.41
2022-09-17T02:56:25.571Z,97751.91
2022-09-17T02:58:32.500Z,97750.81
2022-09-17T03:00:35.982Z,97748.94
2022-09-17T03:02:43.331Z,97745.34
2022-09-17T03:04:48.339Z,97755.81
2022-09-17T03:06:53.181Z,97744.53
2022-09-17T03:08:58.044Z,97749.19
2022-09-17T03:11:01.179Z,97747.38
2022-09-17T03:13:04.175Z,97755.09
2022-09-17T03:15:08.048Z,97753.31
2022-09-17T03:17:11.173Z,97746.44
2022-09-17T03:19:14.092Z,97742.72
2022-09-17T03:21:17.086Z,97748.81
2022-09-17T03:23:20.027Z,97740.97
2022-09-17T03:25:24.315Z,97747.84
2022-09-17T03:27:27.270Z,97747.72
2022-09-17T03:29:30.263Z,97749.38
2022-09-17T03:31:33.304Z,97750.09
2022-09-17T03:33:36.280Z,97753.44
2022-09-17T03:35:39.275Z,97747.34
2022-09-17T03:37:43.061Z,97743.66
2022-09-17T03:39:46.076Z,97754.13
2022-09-17T03:41:50.727Z,97754.94
2022-09-17T03:43:54.027Z,97752.44
2022-09-17T03:45:57.270Z,97755.06
2022-09-17T03:48:00.210Z,97758.41
2022-09-17T03:50:03.215Z,97757.56
2022-09-17T03:52:06.298Z,97756.50
2022-09-17T03:54:09.491Z,97759.94
2022-09-17T03:56:12.505Z,97757.31
2022-09-17T03:58:17.259Z,97763.41
2022-09-17T04:00:20.400Z,97759.22
2022-09-17T04:02:23.627Z,97771.50
2022-09-17T04:04:26.683Z,97767.19
2022-09-17T04:06:29.700Z,97765.53
2022-09-17T04:08:32.623Z,97768.16
2022-09-17T04:10:35.701Z,97773.50
2022-09-17T04:12:38.701Z,97765.09
2022-09-17T04:14:43.033Z,97771.97
2022-09-17T04:16:46.257Z,97758.06
2022-09-17T04:18:49.201Z,97749.28
2022-09-17T04:20:52.144Z,97752.13
2022-09-17T04:22:55.099Z,97756.53
2022-09-17T04:24:58.059Z,97755.81
2022-09-17T04:27:01.045Z,97755.00
2022-09-17T04:29:04.042Z,97754.41
2022-09-17T04:31:08.741Z,97757.97
2022-09-17T04:33:11.696Z,97759.63
2022-09-17T04:35:14.688Z,97753.69
2022-09-17T04:37:17.645Z,97764.13
2022-09-17T04:39:20.600Z,97763.00
2022-09-17T04:41:23.576Z,97765.72
2022-09-17T04:43:26.605Z,97776.06
2022-09-17T04:45:30.511Z,97774.16
2022-09-17T04:47:34.837Z,97769.84
2022-09-17T04:49:37.790Z,97776.06
2022-09-17T04:51:40.810Z,97785.41
2022-09-17T04:53:43.826Z,97782.09
2022-09-17T04:55:46.738Z,97776.31
2022-09-17T04:57:50.587Z,97774.06
2022-09-17T04:59:53.809Z,97779.63
2022-09-17T05:01:56.782Z,97778.69
2022-09-17T05:04:01.295Z,97788.91
2022-09-17T05:06:04.280Z,97793.53
2022-09-17T05:08:08.287Z,97794.63
2022-09-17T05:10:12.752Z,97797.25
2022-09-17T05:12:15.827Z,97798.88
2022-09-17T05:14:18.857Z,97804.34
2022-09-17T05:16:22.122Z,97813.84
2022-09-17T05:18:25.958Z,97803.53
2022-09-17T05:20:30.257Z,97814.69
2022-09-17T05:22:33.170Z,97810.06
2022-09-17T05:24:39.258Z,97806.47
2022-09-17T05:26:42.156Z,97809.81
2022-09-17T05:28:45.151Z,97800.19
2022-09-17T05:30:48.088Z,97808.03
2022-09-17T05:32:59.815Z,97806.47
2022-09-17T05:35:05.634Z,97809.81
2022-09-17T05:37:12.029Z,97807.91
2022-09-17T05:39:15.044Z,97807.91
2022-09-17T05:41:17.974Z,97812.31
2022-09-17T05:43:23.926Z,97822.50
2022-09-17T05:45:27.157Z,97828.47
2022-09-17T05:47:30.224Z,97826.66
2022-09-17T05:49:33.150Z,97824.75
2022-09-17T05:51:36.130Z,97823.94
2022-09-17T05:53:40.474Z,97827.13
2022-09-17T05:55:43.379Z,97834.97
2022-09-17T05:57:46.356Z,97830.59
2022-09-17T05:59:49.339Z,97839.13
2022-09-17T06:01:52.370Z,97836.66
2022-09-17T06:03:55.499Z,97835.81
2022-09-17T06:06:00.101Z,97836.88
2022-09-17T06:08:03.651Z,97843.78
2022-09-17T06:10:09.481Z,97843.66
2022-09-17T06:12:12.424Z,97840.09
2022-09-17T06:14:15.542Z,97846.28
2022-09-17T06:16:18.588Z,97847.09
2022-09-17T06:18:21.805Z,97847.91
2022-09-17T06:20:24.922Z,97854.13
2022-09-17T06:22:27.889Z,97851.50
2022-09-17T06:24:30.866Z,97853.16
2022-09-17T06:26:35.175Z,97859.22
2022-09-17T06:28:41.653Z,97851.50
2022-09-17T06:30:44.929Z,97855.88
2022-09-17T06:32:47.922Z,97856.75
2022-09-17T06:34:50.887Z,97856.63
2022-09-17T06:36:54.059Z,97859.22
2022-09-17T06:38:57.211Z,97853.75
2022-09-17T06:41:00.371Z,97858.75
2022-09-17T06:43:05.117Z,97867.53
2022-09-17T06:45:13.253Z,97864.94
2022-09-17T06:47:19.122Z,97872.53
2022-09-17T06:49:22.335Z,97868.13
2022-09-17T06:51:25.350Z,97868.97
2022-09-17T06:53:29.431Z,97863.00
2022-09-17T06:55:32.389Z,97870.63
2022-09-17T06:57:35.326Z,97871.47
2022-09-17T06:59:39.736Z,97868.13
2022-09-17T07:01:43.554Z,97871.09
2022-09-17T07:03:46.548Z,97873.72
2022-09-17T07:05:49.540Z,97866.97
2022-09-17T07:07:52.887Z,97875.75
2022-09-17T07:09:56.153Z,97874.19
2022-09-17T07:11:59.093Z,97878.84
2022-09-17T07:14:02.148Z,97871.22
2022-09-17T07:16:08.376Z,97880.88
2022-09-17T07:18:12.129Z,97869.44
2022-09-17T07:20:15.719Z,97878.94
2022-09-17T07:22:19.153Z,97882.38
2022-09-17T07:24:22.213Z,97884.88
2022-09-17T07:26:25.197Z,97890.97
2022-09-17T07:28:29.128Z,97898.81
2022-09-17T07:30:32.101Z,97895.34
2022-09-17T07:32:36.471Z,97901.53
2022-09-17T07:34:40.025Z,97898.81
2022-09-17T07:36:44.232Z,97899.75
2022-09-17T07:38:47.909Z,97897.94
2022-09-17T07:40:58.429Z,97912.00
2022-09-17T07:43:01.523Z,97911.13
2022-09-17T07:45:04.986Z,97917.22
2022-09-17T07:47:08.205Z,97915.31
2022-09-17T07:49:12.619Z,97921.59
2022-09-17T07:51:17.013Z,97912.34
2022-09-17T07:53:20.254Z,97916.03
2022-09-17T07:55:23.871Z,97916.03
2022-09-17T07:57:26.831Z,97915.31
2022-09-17T07:59:29.814Z,97912.00
2022-09-17T08:01:34.144Z,97917.94
2022-09-17T08:03:37.710Z,97927.34
2022-09-17T08:05:42.107Z,97928.97
2022-09-17T08:07:45.102Z,97926.25
2022-09-17T08:09:48.092Z,97929.56
2022-09-17T08:11:56.191Z,97934.56
2022-09-17T08:13:59.991Z,97928.50
2022-09-17T08:16:05.339Z,97926.81
2022-09-17T08:18:08.594Z,97939.66
2022-09-17T08:20:11.634Z,97937.66
2022-09-17T08:22:16.066Z,97941.56
2022-09-17T08:24:19.038Z,97949.91
2022-09-17T08:26:23.553Z,97942.91
2022-09-17T08:28:27.968Z,97944.44
2022-09-17T08:30:31.824Z,97942.53
2022-09-17T08:32:34.836Z,97945.03
2022-09-17T08:34:38.040Z,97945.84
2022-09-17T08:36:41.040Z,97942.41
2022-09-17T08:38:45.722Z,97938.00
2022-09-17T08:40:59.555Z,97939.56
2022-09-17T08:43:03.473Z,97928.28
2022-09-17T08:45:10.418Z,97934.34
2022-09-17T08:47:18.444Z,97932.41
2022-09-17T08:49:30.145Z,97944.09
2022-09-17T08:51:40.002Z,97942.88
2022-09-17T08:53:52.289Z,97954.50
2022-09-17T08:56:01.235Z,97956.06
2022-09-17T08:58:28.194Z,97956.19
2022-09-17T09:00:33.940Z,97961.41
2022-09-17T09:03:11.426Z,97967.84
2022-09-17T09:05:16.580Z,97968.22
2022-09-17T09:07:21.950Z,97966.88
2022-09-17T09:09:31.172Z,97956.16
2022-09-17T09:11:34.370Z,97958.41
2022-09-17T09:13:40.366Z,97959.03
2022-09-17T09:15:46.109Z,97969.00
2022-09-17T09:17:50.988Z,97959.94
2022-09-17T09:19:54.476Z,97954.22
2022-09-17T09:22:03.566Z,97956.34
2022-09-17T09:24:10.820Z,97953.47
2022-09-17T09:26:18.437Z,97958.69
2022-09-17T09:28:33.876Z,97952.53
2022-09-17T09:30:44.523Z,97959.88
2022-09-17T09:32:56.888Z,97948.66
2022-09-17T09:35:01.601Z,97952.66
2022-09-17T09:37:13.623Z,97950.28
2022-09-17T09:39:20.244Z,97951.03
2022-09-17T09:41:28.436Z,97948.78
2022-09-17T09:44:02.206Z,97949.78
2022-09-17T09:46:14.196Z,97943.69
2022-09-17T09:48:22.035Z,97946.31
2022-09-17T09:51:01.705Z,97950.72
2022-09-17T09:53:05.796Z,97943.69
2022-09-17T09:55:26.356Z,97948.09
2022-09-17T09:57:39.726Z,97944.22
2022-09-17T09:59:42.718Z,97948.72
2022-09-17T10:01:46.410Z,97950.16
2022-09-17T10:03:51.932Z,97953.78
2022-09-17T10:05:59.303Z,97950.16
2022-09-17T10:08:12.662Z,97949.03
2022-09-17T10:10:15.666Z,97950.72
2022-09-17T10:12:19.565Z,97952.59
2022-09-17T10:14:25.551Z,97953.69
2022-09-17T10:16:30.454Z,97954.16
2022-09-17T10:18:33.561Z,97955.84
2022-09-17T10:20:36.902Z,97959.81
2022-09-17T10:22:41.109Z,97952.19
2022-09-17T10:24:44.423Z,97951.94
2022-09-17T10:26:47.469Z,97959.91
2022-09-17T10:28:51.948Z,97962.59
2022-09-17T10:31:04.092Z,97946.50
2022-09-17T10:33:21.636Z,97945.41
2022-09-17T10:35:28.573Z,97948.13
2022-09-17T10:37:35.765Z,97937.75
2022-09-17T10:39:44.402Z,97929.59
2022-09-17T10:41:55.358Z,97930.94
2022-09-17T10:43:58.508Z,97937.44
2022-09-17T10:46:04.254Z,97942.44
2022-09-17T10:48:16.131Z,97949.19
2022-09-17T10:50:21.033Z,97947.53
2022-09-17T10:52:26.501Z,97960.19
2022-09-17T10:54:54.171Z,97951.41
2022-09-17T10:56:59.993Z,97944.25
2022-09-17T10:59:13.099Z,97942.56
2022-09-17T11:01:29.674Z,97942.81
2022-09-17T11:04:08.864Z,97942.81
2022-09-17T11:06:31.614Z,97940.94
2022-09-17T11:08:38.609Z,97938.50
2022-09-17T11:10:48.652Z,97937.28
2022-09-17T11:13:09.492Z,97935.13
2022-09-17T11:15:25.874Z,97941.25
2022-09-17T11:17:50.072Z,97937.50
2022-09-17T11:20:00.766Z,97951.22
2022-09-17T11:22:08.288Z,97959.88
2022-09-17T11:24:48.832Z,97965.69
2022-09-17T11:26:57.283Z,97974.75
2022-09-17T11:29:09.160Z,97970.81
2022-09-17T11:31:24.480Z,97931.47
2022-09-17T11:33:46.341Z,97906.28
2022-09-17T11:35:51.242Z,97906.75
2022-09-17T11:38:00.073Z,97910.28
2022-09-17T11:40:07.442Z,97916.34
2022-09-17T11:42:15.670Z,97919.06
2022-09-17T11:44:24.127Z,97921.31
2022-09-17T11:46:31.953Z,97919.53
2022-09-17T11:48:40.432Z,97923.59
2022-09-17T11:50:46.581Z,97925.28
2022-09-17T11:53:02.139Z,97920.63
2022-09-17T11:55:11.002Z,97928.09
2022-09-17T11:57:16.501Z,97919.28
2022-09-17T11:59:22.165Z,97920.34
2022-09-17T12:01:28.823Z,97916.22
2022-09-17T12:03:34.814Z,97921.72
2022-09-17T12:05:42.895Z,97920.09
2022-09-17T12:07:51.448Z,97918.63
2022-09-17T12:09:58.713Z,97916.63
2022-09-17T12:12:05.139Z,97920.53
2022-09-17T12:14:15.440Z,97912.28
2022-09-17T12:16:22.358Z,97905.16
2022-09-17T12:18:45.923Z,97898.25
2022-09-17T12:20:53.111Z,97897.06
2022-09-17T12:22:57.655Z,97892.28
2022-09-17T12:25:02.314Z,97891.75
2022-09-17T12:27:11.026Z,97875.28
2022-09-17T12:29:25.229Z,97875.81
2022-09-17T12:31:34.810Z,97865.16
2022-09-17T12:33:40.612Z,97868.84
2022-09-17T12:36:05.298Z,97861.38
2022-09-17T12:38:20.830Z,97863.81
2022-09-17T12:40:30.454Z,97857.53
2022-09-17T12:42:43.220Z,97873.91
2022-09-17T12:45:03.668Z,97869.19
2022-09-17T12:47:25.861Z,97865.19
2022-09-17T12:49:39.761Z,97880.44
2022-09-17T12:51:55.914Z,97879.88
2022-09-17T12:54:04.546Z,97887.88
2022-09-17T12:56:16.859Z,97875.22
2022-09-17T12:58:31.822Z,97890.13
2022-09-17T13:00:38.830Z,97889.81
2022-09-17T13:02:44.865Z,97893.25
2022-09-17T13:05:06.357Z,97896.13
2022-09-17T13:07:27.835Z,97890.88
2022-09-17T13:09:49.058Z,97872.78
2022-09-17T13:12:12.093Z,97889.53
2022-09-17T13:14:19.840Z,97898.63
2022-09-17T13:16:26.488Z,97898.75
2022-09-17T13:18:35.547Z,97897.41
2022-09-17T13:20:44.766Z,97898.13
2022-09-17T13:22:51.224Z,97905.59
2022-09-17T13:25:04.673Z,97907.13
2022-09-17T13:27:21.006Z,97895.81
2022-09-17T13:29:58.602Z,97913.22
2022-09-17T13:32:01.584Z,97903.41
2022-09-17T13:34:04.866Z,97904.13
2022-09-17T13:36:41.093Z,97897.94
2022-09-17T13:38:45.488Z,97893.50
2022-09-17T13:40:48.501Z,97896.44
2022-09-17T13:42:55.332Z,97891.84
2022-09-17T13:45:07.726Z,97902.78
2022-09-17T13:47:23.881Z,97901.91
2022-09-17T13:49:26.900Z,97894.66
2022-09-17T13:51:54.914Z,97898.50
2022-09-17T13:54:01.905Z,97890.38
2022-09-17T13:56:31.840Z,97899.53
2022-09-17T13:58:36.014Z,97896.78
2022-09-17T14:00:54.244Z,97899.88
2022-09-17T14:03:37.208Z,97890.47
2022-09-17T14:05:40.240Z,97893.91
2022-09-17T14:07:49.025Z,97889.66
2022-09-17T14:09:55.665Z,97902.06
2022-09-17T14:11:58.717Z,97891.28
2022-09-17T14:14:51.315Z,97892.97
2022-09-17T14:16:54.270Z,97889.50
2022-09-17T14:18:59.987Z,97893.38
2022-09-17T14:21:07.174Z,97894.19
2022-09-17T14:23:11.068Z,97898.47
2022-09-17T14:25:32.685Z,97889.09
2022-09-17T14:27:51.896Z,97890.06
2022-09-17T14:30:17.046Z,97889.25
2022-09-17T14:32:23.023Z,97888.28
2022-09-17T14:34:27.336Z,97881.78
2022-09-17T14:36:32.048Z,97885.34
2022-09-17T14:38:39.681Z,97882.59
2022-09-17T14:40:46.363Z,97881.38
2022-09-17T14:42:52.744Z,97881.22
2022-09-17T14:44:59.953Z,97888.44
2022-09-17T14:47:04.499Z,97876.38
2022-09-17T14:49:15.899Z,97881.50
2022-09-17T14:51:40.440Z,97882.63
2022-09-17T14:53:43.518Z,97873.75
2022-09-17T14:55:48.496Z,97887.47
2022-09-17T14:57:53.658Z,97879.72
2022-09-17T14:59:57.210Z,97884.75
2022-09-17T15:02:00.612Z,97885.94
2022-09-17T15:04:21.369Z,97879.72
2022-09-17T15:06:24.427Z,97875.56
2022-09-17T15:08:30.245Z,97881.22
2022-09-17T15:10:33.354Z,97875.69
2022-09-17T15:12:39.775Z,97880.31
2022-09-17T15:14:42.709Z,97873.94
2022-09-17T15:16:49.428Z,97871.84
2022-09-17T15:18:54.611Z,97873.78
2022-09-17T15:20:58.616Z,97873.13
2022-09-17T15:23:08.982Z,97877.94
2022-09-17T15:25:16.306Z,97877.13
2022-09-17T15:27:23.516Z,97875.47
2022-09-17T15:29:30.004Z,97870.47
2022-09-17T15:31:33.056Z,97870.31
2022-09-17T15:33:36.289Z,97875.44
2022-09-17T15:35:39.602Z,97869.03
2022-09-17T15:37:46.646Z,97869.88
2022-09-17T15:39:59.277Z,97874.00
2022-09-17T15:42:02.411Z,97866.97
2022-09-17T15:44:29.822Z,97869.59
2022-09-17T15:46:35.071Z,97865.97
2022-09-17T15:48:39.613Z,97871.66
2022-09-17T15:50:51.993Z,97866.13
2022-09-17T15:53:13.754Z,97871.38
2022-09-17T15:55:33.551Z,97872.63
2022-09-17T15:57:36.640Z,97875.13
2022-09-17T15:59:39.922Z,97869.72
2022-09-17T16:01:55.260Z,97867.13
2022-09-17T16:04:10.008Z,97863.09
2022-09-17T16:06:45.615Z,97865.34
2022-09-17T16:08:49.773Z,97863.28
2022-09-17T16:10:53.061Z,97864.91
2022-09-17T16:12:56.114Z,97862.41
2022-09-17T16:15:01.403Z,97868.53
2022-09-17T16:17:23.620Z,97869.22
2022-09-17T16:19:26.754Z,97867.69
2022-09-17T16:21:29.928Z,97870.19
2022-09-17T16:23:32.952Z,97877.25
2022-09-17T16:25:36.038Z,97871.75
2022-09-17T16:27:45.515Z,97867.84
2022-09-17T16:29:49.127Z,97872.56
2022-09-17T16:31:52.868Z,97868.81
2022-09-17T16:33:57.208Z,97875.44
2022-09-17T16:36:00.650Z,97872.97
2022-09-17T16:38:03.781Z,97869.13
2022-09-17T16:40:08.029Z,97875.03
2022-09-17T16:42:11.050Z,97867.28
2022-09-17T16:44:14.032Z,97876.13
2022-09-17T16:46:17.271Z,97872.13
2022-09-17T16:48:20.275Z,97871.53
2022-09-17T16:50:24.737Z,97871.81
2022-09-17T16:52:27.695Z,97879.00
2022-09-17T16:54:30.718Z,97876.38
2022-09-17T16:56:33.780Z,97875.00
2022-09-17T16:58:37.093Z,97875.97
2022-09-17T17:00:42.950Z,97875.41
2022-09-17T17:02:47.291Z,97874.56
2022-09-17T17:04:50.504Z,97869.72
2022-09-17T17:06:54.846Z,97868.22
2022-09-17T17:09:01.013Z,97870.41
2022-09-17T17:11:03.957Z,97878.41
2022-09-17T17:13:07.294Z,97869.31
2022-09-17T17:15:11.083Z,97871.22
2022-09-17T17:17:14.108Z,97880.91
2022-09-17T17:19:17.745Z,97885.47
2022-09-17T17:21:21.250Z,97878.41
2022-09-17T17:23:25.612Z,97886.97
2022-09-17T17:25:28.645Z,97883.66
2022-09-17T17:27:31.620Z,97887.38
2022-09-17T17:29:35.360Z,97888.63
2022-09-17T17:31:38.427Z,97886.00
2022-09-17T17:33:41.427Z,97894.97
2022-09-17T17:35:45.516Z,97894.41
2022-09-17T17:37:48.699Z,97914.53
2022-09-17T17:39:53.838Z,97909.41
2022-09-17T17:41:57.001Z,97912.69
2022-09-17T17:43:59.963Z,97909.09
2022-09-17T17:46:03.260Z,97908.88
2022-09-17T17:48:06.517Z,97915.63
2022-09-17T17:50:10.585Z,97921.50
2022-09-17T17:52:13.538Z,97926.19
2022-09-17T17:54:16.694Z,97923.69
2022-09-17T17:56:21.074Z,97936.94
2022-09-17T17:58:24.317Z,97925.28
2022-09-17T18:00:27.710Z,97931.03
2022-09-17T18:02:31.077Z,97935.97
2022-09-17T18:04:34.380Z,97932.44
2022-09-17T18:06:37.644Z,97932.00
2022-09-17T18:08:42.105Z,97939.16
2022-09-17T18:10:52.565Z,97941.69
2022-09-17T18:12:56.945Z,97945.53
2022-09-17T18:15:00.110Z,97945.78
2022-09-17T18:17:03.098Z,97944.25
2022-09-17T18:19:06.694Z,97944.38
2022-09-17T18:21:11.686Z,97952.34
2022-09-17T18:23:14.789Z,97955.78
2022-09-17T18:25:18.042Z,97958.41
2022-09-17T18:27:21.044Z,97954.16
2022-09-17T18:29:25.348Z,97953.28
2022-09-17T18:31:30.204Z,97959.63
2022-09-17T18:33:33.830Z,97958.22
2022-09-17T18:35:37.472Z,97958.34
2022-09-17T18:37:40.482Z,97963.56
2022-09-17T18:39:59.513Z,97967.75
2022-09-17T18:42:03.175Z,97967.75
2022-09-17T18:44:06.214Z,97967.75
2022-09-17T18:46:10.907Z,97968.44
2022-09-17T18:48:13.967Z,97971.88
2022-09-17T18:50:17.886Z,97984.78
2022-09-17T18:52:21.070Z,97983.50
2022-09-17T18:54:24.152Z,97992.28
2022-09-17T18:56:28.983Z,97991.22
2022-09-17T18:58:32.024Z,97993.13
2022-09-17T19:00:35.029Z,97993.03
2022-09-17T19:02:39.667Z,97994.84
2022-09-17T19:04:42.997Z,97988.63
2022-09-17T19:06:46.015Z,97991.13
2022-09-17T19:08:49.994Z,97994.47
2022-09-17T19:10:53.393Z,97999.56
2022-09-17T19:12:56.419Z,98002.19
2022-09-17T19:14:59.414Z,98006.56
2022-09-17T19:17:02.475Z,98011.00
2022-09-17T19:19:07.019Z,98013.50
2022-09-17T19:21:12.263Z,98017.06
2022-09-17T19:23:15.405Z,98028.38
2022-09-17T19:25:19.710Z,98026.59
2022-09-17T19:27:22.897Z,98037.88
2022-09-17T19:29:25.969Z,98035.88
2022-09-17T19:31:29.441Z,98034.19
2022-09-17T19:33:32.611Z,98040.25
2022-09-17T19:35:36.937Z,98043.84
2022-09-17T19:37:39.944Z,98037.53
2022-09-17T19:39:42.903Z,98048.13
2022-09-17T19:41:45.979Z,98055.75
2022-09-17T19:43:51.566Z,98050.63
2022-09-17T19:46:01.491Z,98061.22
2022-09-17T19:48:04.706Z,98063.97
2022-09-17T19:50:08.019Z,98063.28
2022-09-17T19:52:12.414Z,98065.66
2022-09-17T19:54:15.513Z,98064.56
2022-09-17T19:56:20.188Z,98075.75
2022-09-17T19:58:23.173Z,98075.88
2022-09-17T20:00:26.413Z,98078.50
2022-09-17T20:02:29.510Z,98075.75
2022-09-17T20:04:32.604Z,98079.91
2022-09-17T20:06:36.105Z,98078.03
2022-09-17T20:08:47.034Z,98082.53
2022-09-17T20:10:50.989Z,98081.13
2022-09-17T20:12:53.992Z,98083.13
2022-09-17T20:14:57.011Z,98086.09
2022-09-17T20:17:00.040Z,98086.09
2022-09-17T20:19:03.318Z,98081.09
2022-09-17T20:21:10.189Z,98082.06
2022-09-17T20:23:13.273Z,98076.84
2022-09-17T20:25:17.727Z,98078.59
2022-09-17T20:27:20.752Z,98083.13
2022-09-17T20:29:23.790Z,98081.47
2022-09-17T20:31:28.382Z,98082.44
2022-09-17T20:33:31.517Z,98085.28
2022-09-17T20:35:36.241Z,98082.78
2022-09-17T20:40:02.654Z,98076.22
2022-09-17T20:42:07.249Z,98093.84
2022-09-17T20:44:10.266Z,98082.66
2022-09-17T20:46:13.953Z,98088.81
2022-09-17T20:48:16.964Z,98093.22
2022-09-17T20:50:19.995Z,98088.22
2022-09-17T20:52:23.005Z,98092.25
2022-09-17T20:54:26.002Z,98101.06
2022-09-17T20:56:31.388Z,98097.50
2022-09-17T20:58:39.582Z,98090.34
2022-09-17T21:00:42.788Z,98097.38
2022-09-17T21:02:50.450Z,98105.56
2022-09-17T21:04:54.172Z,98104.63
2022-09-17T21:06:57.188Z,98110.69
2022-09-17T21:09:00.725Z,98113.44
2022-09-17T21:11:05.605Z,98119.59
2022-09-17T21:13:08.624Z,98116.16
2022-09-17T21:15:13.957Z,98113.66
2022-09-17T21:17:16.954Z,98114.59
2022-09-17T21:19:21.366Z,98120.81
2022-09-17T21:21:25.147Z,98126.84
2022-09-17T21:23:29.170Z,98121.97
2022-09-17T21:25:32.167Z,98122.56
2022-09-17T21:27:35.131Z,98128.25
2022-09-17T21:29:38.115Z,98131.81
2022-09-17T21:31:42.584Z,98137.88
2022-09-17T21:33:46.478Z,98138.47
2022-09-17T21:35:50.963Z,98138.59
2022-09-17T21:37:53.944Z,98135.97
2022-09-17T21:39:57.104Z,98140.38
2022-09-17T21:42:00.232Z,98141.22
2022-09-17T21:44:03.492Z,98142.88
2022-09-17T21:46:08.722Z,98138.47
2022-09-17T21:48:13.102Z,98144.41
2022-09-17T21:50:16.271Z,98143.47
2022-09-17T21:52:19.335Z,98139.06
2022-09-17T21:54:22.396Z,98139.94
2022-09-17T21:56:25.444Z,98140.03
2022-09-17T21:58:28.445Z,98138.47
2022-09-17T22:00:31.419Z,98134.56
2022-09-17T22:02:35.723Z,98134.56
2022-09-17T22:04:40.189Z,98135.38
2022-09-17T22:06:43.850Z,98129.56
2022-09-17T22:08:47.122Z,98144.41
2022-09-17T22:10:50.145Z,98144.28
2022-09-17T22:12:53.165Z,98150.25
2022-09-17T22:14:56.236Z,98147.41
2022-09-17T22:16:59.738Z,98151.66
2022-09-17T22:19:03.956Z,98145.50
2022-09-17T22:21:14.777Z,98142.88
2022-09-17T22:23:17.842Z,98141.44
2022-09-17T22:25:20.887Z,98137.19
2022-09-17T22:27:23.965Z,98144.16
2022-09-17T22:29:30.189Z,98145.03
2022-09-17T22:31:33.613Z,98150.97
2022-09-17T22:33:37.784Z,98140.72
2022-09-17T22:35:40.832Z,98137.88
2022-09-17T22:37:45.523Z,98137.66
2022-09-17T22:39:48.522Z,98139.44
2022-09-17T22:41:51.606Z,98135.03
2022-09-17T22:43:55.062Z,98144.69
2022-09-17T22:45:58.070Z,98139.44
2022-09-17T22:48:01.091Z,98140.03
2022-09-17T22:50:04.132Z,98137.53
2022-09-17T22:52:07.157Z,98129.09
2022-09-17T22:54:13.533Z,98134.31
2022-09-17T22:56:18.457Z,98132.66
2022-09-17T22:58:24.127Z,98134.31
2022-09-17T23:00:27.131Z,98128.25
2022-09-17T23:02:30.187Z,98119.56
2022-09-17T23:04:33.221Z,98126.94
2022-09-17T23:06:38.959Z,98133.22
2022-09-17T23:08:42.431Z,98130.50
2022-09-17T23:10:46.793Z,98135.59
2022-09-17T23:12:49.770Z,98140.84
2022-09-17T23:14:52.819Z,98140.00
2022-09-17T23:16:56.747Z,98138.09
2022-09-17T23:18:59.794Z,98140.63
2022-09-17T23:21:07.038Z,98145.63
2022-09-17T23:23:10.179Z,98143.81
2022-09-17T23:25:13.157Z,98143.72
2022-09-17T23:27:17.610Z,98137.44
2022-09-17T23:29:20.736Z,98147.88
2022-09-17T23:31:24.773Z,98141.09
2022-09-17T23:33:27.818Z,98144.41
2022-09-17T23:35:30.877Z,98148.13
2022-09-17T23:37:34.632Z,98144.53
2022-09-17T23:39:37.781Z,98139.19
2022-09-17T23:41:43.157Z,98139.94
2022-09-17T23:43:48.985Z,98142.66
2022-09-17T23:45:57.337Z,98136.44
2022-09-17T23:48:00.537Z,98140.75
2022-09-17T23:50:03.749Z,98133.84
2022-09-17T23:52:07.325Z,98135.50
2022-09-17T23:54:10.301Z,98139.06
2022-09-17T23:56:14.923Z,98144.06
2022-09-17T23:58:17.998Z,98145.97
